createdAt,value
2023-05-11T00:01:29.191Z,9.74
2023-05-11T00:03:56.931Z,9.76
2023-05-11T00:06:25.201Z,9.77
2023-05-11T00:08:52.892Z,9.76
2023-05-11T00:11:21.727Z,9.73
2023-05-11T00:13:49.705Z,9.70
2023-05-11T00:16:17.513Z,9.73
2023-05-11T00:18:45.575Z,9.74
2023-05-11T00:21:13.355Z,9.69
2023-05-11T00:23:40.948Z,9.66
2023-05-11T00:26:08.756Z,9.65
2023-05-11T00:28:36.581Z,9.62
2023-05-11T00:31:04.387Z,9.63
2023-05-11T00:33:32.312Z,9.60
2023-05-11T00:35:59.983Z,9.56
2023-05-11T00:38:27.713Z,9.58
2023-05-11T00:40:55.346Z,9.58
2023-05-11T00:43:22.932Z,9.63
2023-05-11T00:45:52.348Z,9.63
2023-05-11T00:48:20.011Z,9.62
2023-05-11T00:50:48.696Z,9.58
2023-05-11T00:53:16.647Z,9.59
2023-05-11T00:55:45.102Z,9.60
2023-05-11T00:58:13.027Z,9.60
2023-05-11T01:00:41.256Z,9.62
2023-05-11T01:03:09.096Z,9.61
2023-05-11T01:05:49.935Z,9.60
2023-05-11T01:08:31.220Z,9.57
2023-05-11T01:11:08.231Z,9.55
2023-05-11T01:13:45.948Z,9.55
2023-05-11T01:16:21.988Z,9.57
2023-05-11T01:18:59.132Z,9.54
2023-05-11T01:21:31.595Z,9.53
2023-05-11T01:24:17.841Z,9.47
2023-05-11T01:26:55.632Z,9.38
2023-05-11T01:29:42.596Z,9.33
2023-05-11T01:32:20.745Z,9.28
2023-05-11T01:34:53.348Z,9.23
2023-05-11T01:37:25.858Z,9.19
2023-05-11T01:40:05.520Z,9.15
2023-05-11T01:42:40.528Z,9.11
2023-05-11T01:45:10.738Z,9.08
2023-05-11T01:47:41.813Z,9.02
2023-05-11T01:50:11.094Z,8.96
2023-05-11T01:52:40.890Z,8.95
2023-05-11T01:55:10.631Z,8.91
2023-05-11T01:57:39.674Z,8.87
2023-05-11T02:00:08.766Z,8.87
2023-05-11T02:02:37.001Z,8.85
2023-05-11T02:05:06.288Z,8.79
2023-05-11T02:07:36.429Z,8.74
2023-05-11T02:10:04.701Z,8.73
2023-05-11T02:12:35.595Z,8.69
2023-05-11T02:15:04.692Z,8.60
2023-05-11T02:17:34.173Z,8.54
2023-05-11T02:20:04.031Z,8.48
2023-05-11T02:22:33.446Z,8.40
2023-05-11T02:25:01.299Z,8.33
2023-05-11T02:27:28.982Z,8.26
2023-05-11T02:29:56.624Z,8.18
2023-05-11T02:32:26.005Z,8.05
2023-05-11T02:35:00.387Z,7.93
2023-05-11T02:37:30.580Z,7.84
2023-05-11T02:40:02.662Z,7.76
2023-05-11T02:48:26.575Z,7.54
2023-05-11T02:50:56.984Z,7.48
2023-05-11T02:53:28.802Z,7.38
2023-05-11T02:55:58.242Z,7.32
2023-05-11T02:58:26.324Z,7.26
2023-05-11T03:00:54.883Z,7.22
2023-05-11T03:03:22.695Z,7.20
2023-05-11T03:05:50.336Z,7.16
2023-05-11T03:08:18.155Z,7.12
2023-05-11T03:10:47.088Z,7.07
2023-05-11T03:13:17.623Z,7.05
2023-05-11T03:15:45.624Z,7.08
2023-05-11T03:18:13.788Z,7.07
2023-05-11T03:20:43.367Z,7.07
2023-05-11T03:23:13.631Z,7.08
2023-05-11T03:25:43.576Z,7.09
2023-05-11T03:28:13.710Z,7.10
2023-05-11T03:33:39.767Z,7.11
2023-05-11T03:36:10.561Z,7.12
2023-05-11T03:38:39.473Z,7.13
2023-05-11T03:41:07.079Z,7.20
2023-05-11T03:43:35.868Z,7.23
2023-05-11T03:46:05.181Z,7.26
2023-05-11T03:48:33.359Z,7.31
2023-05-11T03:51:01.073Z,7.36
2023-05-11T03:53:30.435Z,7.44
2023-05-11T03:55:58.465Z,7.53
2023-05-11T03:58:26.193Z,7.61
2023-05-11T04:00:54.004Z,7.69
2023-05-11T04:03:22.338Z,7.80
2023-05-11T04:05:50.136Z,7.90
2023-05-11T04:08:17.708Z,7.99
2023-05-11T04:10:45.552Z,8.08
2023-05-11T04:13:15.351Z,8.19
2023-05-11T04:15:42.977Z,8.29
2023-05-11T04:18:11.183Z,8.42
2023-05-11T04:20:39.116Z,8.59
2023-05-11T04:23:08.424Z,8.70
2023-05-11T04:25:38.021Z,8.84
2023-05-11T04:28:05.823Z,8.96
2023-05-11T04:30:33.697Z,9.06
2023-05-11T04:33:01.591Z,9.14
2023-05-11T04:35:29.336Z,9.20
2023-05-11T04:37:56.997Z,9.32
2023-05-11T04:40:24.656Z,9.46
2023-05-11T04:42:52.298Z,9.61
2023-05-11T04:45:19.980Z,9.71
2023-05-11T04:47:47.754Z,9.82
2023-05-11T04:50:15.869Z,9.92
2023-05-11T04:52:43.627Z,10.01
2023-05-11T04:55:11.398Z,10.12
2023-05-11T04:57:39.410Z,10.19
2023-05-11T05:00:08.808Z,10.29
2023-05-11T05:02:36.723Z,10.41
2023-05-11T05:05:04.761Z,10.52
2023-05-11T05:07:32.405Z,10.56
2023-05-11T05:10:00.209Z,10.70
2023-05-11T05:12:27.867Z,10.82
2023-05-11T05:14:55.494Z,10.85
2023-05-11T05:17:23.346Z,10.87
2023-05-11T05:19:51.127Z,11.02
2023-05-11T05:22:18.907Z,11.20
2023-05-11T05:24:46.869Z,11.31
2023-05-11T05:27:14.463Z,11.45
2023-05-11T05:29:42.223Z,11.51
2023-05-11T05:32:10.336Z,11.66
2023-05-11T05:34:37.961Z,11.79
2023-05-11T05:37:05.808Z,11.94
2023-05-11T05:39:34.337Z,12.34
2023-05-11T05:42:03.162Z,13.14
2023-05-11T05:44:31.334Z,14.34
2023-05-11T05:46:58.943Z,15.38
2023-05-11T05:49:26.549Z,15.63
2023-05-11T05:51:54.568Z,15.62
2023-05-11T05:54:46.230Z,16.24
2023-05-11T05:57:15.688Z,16.75
2023-05-11T05:59:44.184Z,17.12
2023-05-11T06:02:13.581Z,17.27
2023-05-11T06:04:42.282Z,17.30
2023-05-11T06:07:10.042Z,17.94
2023-05-11T06:09:39.122Z,18.23
2023-05-11T06:12:07.166Z,18.60
2023-05-11T06:14:34.930Z,19.17
2023-05-11T06:17:02.704Z,19.21
2023-05-11T06:19:30.544Z,18.78
2023-05-11T06:21:58.171Z,18.61
2023-05-11T06:24:25.951Z,18.32
2023-05-11T06:26:55.061Z,18.46
2023-05-11T06:29:22.977Z,19.18
2023-05-11T06:31:54.423Z,19.75
2023-05-11T06:34:22.630Z,19.84
2023-05-11T06:36:50.392Z,20.04
2023-05-11T06:39:17.983Z,19.73
2023-05-11T06:41:45.838Z,19.44
2023-05-11T06:44:13.545Z,19.77
2023-05-11T06:46:41.424Z,19.75
2023-05-11T06:49:09.139Z,19.37
2023-05-11T06:51:36.921Z,19.64
2023-05-11T06:54:04.707Z,19.54
2023-05-11T06:56:34.102Z,19.64
2023-05-11T06:59:01.791Z,19.25
2023-05-11T07:01:29.620Z,18.89
2023-05-11T07:03:57.454Z,18.85
2023-05-11T07:06:25.146Z,18.72
2023-05-11T07:08:52.932Z,19.16
2023-05-11T07:11:21.957Z,19.74
2023-05-11T07:13:49.640Z,19.55
2023-05-11T07:16:17.547Z,19.15
2023-05-11T07:18:45.191Z,19.18
2023-05-11T07:21:12.858Z,19.57
2023-05-11T07:23:40.862Z,19.85
2023-05-11T07:26:09.363Z,19.85
2023-05-11T07:28:37.621Z,19.62
2023-05-11T07:31:05.966Z,20.01
2023-05-11T07:33:34.736Z,20.22
2023-05-11T07:36:02.394Z,20.21
2023-05-11T07:38:30.072Z,19.74
2023-05-11T07:40:58.297Z,19.50
2023-05-11T07:43:26.073Z,19.18
2023-05-11T07:45:53.825Z,19.15
2023-05-11T07:48:24.574Z,19.21
2023-05-11T07:50:52.291Z,19.48
2023-05-11T07:53:19.927Z,19.74
2023-05-11T07:55:47.711Z,19.89
2023-05-11T07:58:15.417Z,20.15
2023-05-11T08:00:43.126Z,20.27
2023-05-11T08:03:10.982Z,20.58
2023-05-11T08:05:38.863Z,20.28
2023-05-11T08:08:06.743Z,19.99
2023-05-11T08:10:36.455Z,19.72
2023-05-11T08:13:04.167Z,19.71
2023-05-11T08:15:32.225Z,20.26
2023-05-11T08:18:00.605Z,20.31
2023-05-11T08:20:28.534Z,20.27
2023-05-11T08:22:56.191Z,20.33
2023-05-11T08:25:23.932Z,20.09
2023-05-11T08:27:51.754Z,19.46
2023-05-11T08:30:19.556Z,19.26
2023-05-11T08:32:57.700Z,19.40
2023-05-11T08:35:27.252Z,19.43
2023-05-11T08:37:55.099Z,19.72
2023-05-11T08:40:27.687Z,20.08
2023-05-11T08:42:59.301Z,20.02
2023-05-11T08:45:27.705Z,19.98
2023-05-11T08:47:55.716Z,20.29
2023-05-11T08:50:23.668Z,20.00
2023-05-11T08:52:51.347Z,19.70
2023-05-11T08:55:19.485Z,19.82
2023-05-11T08:57:47.513Z,19.99
2023-05-11T09:00:16.325Z,20.14
2023-05-11T09:02:44.264Z,20.09
2023-05-11T09:05:12.526Z,20.02
2023-05-11T09:07:42.418Z,20.18
2023-05-11T09:10:12.873Z,20.48
2023-05-11T09:12:41.521Z,21.06
2023-05-11T09:15:09.589Z,21.61
2023-05-11T09:17:37.426Z,21.84
2023-05-11T09:20:06.883Z,21.72
2023-05-11T09:22:44.045Z,21.50
2023-05-11T09:25:17.580Z,21.93
2023-05-11T09:27:46.765Z,22.44
2023-05-11T09:30:22.087Z,22.49
2023-05-11T09:32:51.356Z,22.21
2023-05-11T09:35:34.470Z,21.77
2023-05-11T09:38:12.621Z,21.54
2023-05-11T09:40:55.052Z,21.15
2023-05-11T09:43:28.600Z,21.34
2023-05-11T09:46:04.781Z,21.76
2023-05-11T09:48:34.012Z,22.17
2023-05-11T09:51:06.854Z,21.75
2023-05-11T09:53:39.265Z,21.94
2023-05-11T09:56:07.310Z,22.66
2023-05-11T09:58:55.217Z,23.15
2023-05-11T10:01:30.953Z,23.52
2023-05-11T10:04:13.868Z,23.93
2023-05-11T10:06:52.929Z,24.54
2023-05-11T10:09:24.575Z,24.52
2023-05-11T10:11:53.585Z,25.19
2023-05-11T10:14:22.528Z,25.48
2023-05-11T10:16:52.282Z,25.08
2023-05-11T10:19:20.248Z,24.70
2023-05-11T10:21:48.472Z,25.16
2023-05-11T10:24:19.691Z,24.83
2023-05-11T10:26:48.764Z,24.09
2023-05-11T10:29:19.322Z,24.11
2023-05-11T10:31:48.660Z,24.57
2023-05-11T10:34:17.667Z,25.03
2023-05-11T10:36:46.823Z,24.74
2023-05-11T10:39:14.527Z,24.46
2023-05-11T10:41:49.064Z,24.10
2023-05-11T10:44:30.722Z,24.45
2023-05-11T10:47:31.413Z,24.81
2023-05-11T10:50:19.616Z,24.93
2023-05-11T10:52:48.495Z,24.97
2023-05-11T10:55:38.760Z,24.73
2023-05-11T10:58:17.953Z,24.24
2023-05-11T11:01:18.770Z,24.43
2023-05-11T11:04:02.732Z,25.18
2023-05-11T11:06:31.437Z,26.31
2023-05-11T11:09:05.401Z,26.44
2023-05-11T11:12:10.867Z,26.57
2023-05-11T11:14:59.706Z,25.96
2023-05-11T11:17:32.503Z,25.27
2023-05-11T11:20:08.460Z,25.16
2023-05-11T11:22:36.356Z,25.71
2023-05-11T11:25:10.708Z,26.28
2023-05-11T11:27:41.167Z,26.26
2023-05-11T11:30:30.457Z,25.78
2023-05-11T11:33:07.370Z,24.99
2023-05-11T11:35:41.418Z,25.24
2023-05-11T11:38:18.068Z,26.02
2023-05-11T11:40:51.907Z,27.07
2023-05-11T11:43:22.508Z,27.88
2023-05-11T11:45:54.172Z,27.63
2023-05-11T11:48:32.448Z,26.59
2023-05-11T11:51:08.973Z,26.59
2023-05-11T11:53:37.080Z,27.07
2023-05-11T11:56:06.126Z,27.65
2023-05-11T11:58:46.224Z,28.58
2023-05-11T12:01:15.916Z,29.61
2023-05-11T12:03:46.843Z,28.62
2023-05-11T12:06:25.040Z,26.79
2023-05-11T12:08:54.263Z,25.59
2023-05-11T12:11:23.229Z,25.68
2023-05-11T12:13:51.024Z,26.17
2023-05-11T12:16:19.052Z,25.72
2023-05-11T12:19:01.045Z,26.08
2023-05-11T12:21:32.508Z,24.94
2023-05-11T12:24:02.587Z,24.21
2023-05-11T12:26:33.419Z,24.51
2023-05-11T12:29:12.797Z,24.95
2023-05-11T12:31:42.728Z,26.17
2023-05-11T12:34:17.853Z,26.72
2023-05-11T12:36:47.077Z,27.34
2023-05-11T12:39:20.164Z,27.64
2023-05-11T12:41:54.043Z,27.98
2023-05-11T12:44:24.495Z,27.98
2023-05-11T12:46:52.960Z,27.04
2023-05-11T12:49:26.247Z,26.83
2023-05-11T12:51:57.561Z,26.62
2023-05-11T12:54:31.180Z,27.05
2023-05-11T12:57:03.076Z,27.41
2023-05-11T12:59:35.495Z,26.41
2023-05-11T13:02:13.101Z,25.89
2023-05-11T13:04:42.484Z,25.68
2023-05-11T13:07:11.468Z,25.60
2023-05-11T13:09:40.510Z,26.36
2023-05-11T13:12:17.681Z,26.03
2023-05-11T13:14:47.776Z,24.99
2023-05-11T13:17:37.308Z,24.29
2023-05-11T13:20:17.185Z,24.20
2023-05-11T13:22:45.795Z,24.64
2023-05-11T13:25:19.231Z,24.51
2023-05-11T13:27:47.560Z,24.03
2023-05-11T13:30:15.459Z,24.05
2023-05-11T13:32:43.188Z,24.40
2023-05-11T13:35:10.879Z,24.75
2023-05-11T13:37:41.929Z,25.70
2023-05-11T13:40:10.539Z,26.25
2023-05-11T13:42:38.251Z,25.93
2023-05-11T13:45:06.530Z,25.45
2023-05-11T13:47:34.758Z,25.60
2023-05-11T13:50:03.757Z,25.48
2023-05-11T13:52:31.741Z,25.08
2023-05-11T13:54:59.494Z,25.68
2023-05-11T13:57:27.340Z,25.89
2023-05-11T13:59:54.960Z,25.42
2023-05-11T14:02:22.731Z,25.77
2023-05-11T14:04:50.620Z,25.75
2023-05-11T14:07:18.277Z,25.30
2023-05-11T14:09:47.847Z,24.63
2023-05-11T14:12:15.520Z,24.74
2023-05-11T14:14:43.222Z,25.23
2023-05-11T14:17:13.416Z,25.53
2023-05-11T14:19:41.174Z,25.86
2023-05-11T14:22:08.895Z,25.79
2023-05-11T14:24:37.341Z,24.91
2023-05-11T14:27:05.977Z,25.16
2023-05-11T14:29:42.630Z,25.08
2023-05-11T14:32:12.061Z,25.41
2023-05-11T14:34:39.789Z,26.14
2023-05-11T14:37:07.484Z,25.62
2023-05-11T14:39:35.103Z,25.76
2023-05-11T14:42:03.325Z,25.85
2023-05-11T14:44:31.868Z,25.52
2023-05-11T14:46:59.750Z,26.20
2023-05-11T14:49:27.515Z,27.34
2023-05-11T14:51:55.254Z,27.90
2023-05-11T14:54:24.038Z,27.40
2023-05-11T14:56:54.200Z,27.80
2023-05-11T14:59:24.423Z,28.38
2023-05-11T15:01:52.170Z,28.26
2023-05-11T15:04:20.394Z,27.12
2023-05-11T15:06:50.410Z,26.43
2023-05-11T15:09:20.364Z,25.82
2023-05-11T15:11:48.089Z,25.87
2023-05-11T15:14:16.908Z,26.47
2023-05-11T15:16:45.727Z,27.49
2023-05-11T15:19:13.774Z,28.45
2023-05-11T15:21:41.604Z,28.96
2023-05-11T15:24:10.965Z,28.43
2023-05-11T15:26:38.806Z,28.70
2023-05-11T15:29:07.554Z,27.36
2023-05-11T15:31:35.650Z,27.52
2023-05-11T15:34:03.579Z,28.29
2023-05-11T15:36:31.416Z,29.53
2023-05-11T15:38:59.777Z,29.81
2023-05-11T15:41:27.491Z,28.58
2023-05-11T15:43:55.208Z,29.20
2023-05-11T15:46:23.440Z,28.66
2023-05-11T15:48:51.706Z,27.40
2023-05-11T15:51:19.522Z,27.33
2023-05-11T15:53:48.099Z,27.28
2023-05-11T15:56:15.925Z,26.74
2023-05-11T15:58:43.736Z,26.32
2023-05-11T16:01:11.915Z,25.04
2023-05-11T16:03:39.865Z,23.89
2023-05-11T16:06:07.765Z,23.01
2023-05-11T16:08:35.617Z,22.51
2023-05-11T16:11:03.429Z,22.25
2023-05-11T16:13:31.229Z,22.11
2023-05-11T16:16:00.228Z,21.84
2023-05-11T16:18:28.693Z,21.76
2023-05-11T16:20:56.486Z,21.45
2023-05-11T16:23:25.467Z,21.21
2023-05-11T16:25:53.568Z,21.03
2023-05-11T16:28:21.311Z,20.74
2023-05-11T16:30:49.099Z,20.69
2023-05-11T16:33:17.409Z,20.75
2023-05-11T16:35:45.293Z,20.77
2023-05-11T16:38:17.634Z,20.72
2023-05-11T16:40:45.391Z,20.63
2023-05-11T16:43:13.036Z,20.52
2023-05-11T16:45:40.870Z,20.41
2023-05-11T16:48:08.665Z,20.41
2023-05-11T16:50:36.571Z,20.29
2023-05-11T16:53:05.008Z,20.08
2023-05-11T16:55:33.173Z,19.82
2023-05-11T16:58:00.816Z,19.82
2023-05-11T17:00:28.570Z,19.73
2023-05-11T17:02:56.604Z,19.66
2023-05-11T17:05:24.341Z,19.65
2023-05-11T17:07:52.548Z,19.65
2023-05-11T17:10:20.489Z,19.66
2023-05-11T17:12:48.410Z,19.65
2023-05-11T17:15:16.135Z,19.55
2023-05-11T17:17:43.762Z,19.43
2023-05-11T17:20:12.673Z,19.33
2023-05-11T17:22:40.364Z,19.27
2023-05-11T17:25:08.845Z,19.22
2023-05-11T17:27:37.395Z,19.22
2023-05-11T17:30:06.485Z,19.12
2023-05-11T17:32:34.533Z,19.03
2023-05-11T17:35:03.987Z,18.96
2023-05-11T17:37:32.625Z,18.89
2023-05-11T17:40:01.403Z,18.81
2023-05-11T17:42:29.149Z,18.79
2023-05-11T17:44:57.072Z,18.69
2023-05-11T17:47:24.865Z,18.62
2023-05-11T17:49:52.490Z,18.56
2023-05-11T17:52:20.139Z,18.58
2023-05-11T17:54:48.171Z,18.59
2023-05-11T17:57:15.886Z,18.62
2023-05-11T17:59:43.710Z,18.56
2023-05-11T18:02:12.029Z,18.45
2023-05-11T18:04:41.974Z,18.41
2023-05-11T18:07:09.728Z,18.32
2023-05-11T18:09:37.457Z,18.22
2023-05-11T18:12:05.903Z,18.12
2023-05-11T18:14:33.702Z,18.02
2023-05-11T18:17:02.412Z,17.96
2023-05-11T18:19:30.491Z,17.89
2023-05-11T18:21:59.131Z,17.78
2023-05-11T18:24:26.986Z,17.63
2023-05-11T18:26:54.671Z,17.54
2023-05-11T18:29:23.053Z,17.44
2023-05-11T18:31:51.286Z,17.34
2023-05-11T18:34:20.355Z,17.21
2023-05-11T18:36:48.113Z,17.08
2023-05-11T18:39:16.051Z,16.93
2023-05-11T18:41:43.895Z,16.79
2023-05-11T18:44:11.795Z,16.71
2023-05-11T18:46:39.513Z,16.66
